^^
Datos históricos de la estación: Murcia-Puente Tocinos
Diario Informe para Noviembre 25, 2019 Unidades:  Ingés    Métrico   Ambas
Diario Semanal Mensual Anual
  Máxima: Mínima: Promedio:
Temperatura: 70.3 °F 47.7 °F 58.8 °F
Punto de rocio: 52.3 °F 37.6 °F 45.7 °F
Humedad: 76.9% 49.6% 62%
Velocidad viento: 6.9mph 1.4mph 3.5mph
Racha viento: 13mph - -
Viento- - SSO
Presión: 30 in 29.9 in -
Precipitación: 0 in    
 
 
Tabla de datos para Noviembre 25, 2019
Hora Temperatura Punto de rocio Presión Viento Velocidad viento Racha viento Humedad Intensidad lluvia(por hora) Nubes
00:04 50.7 °F 37.8 °F 29.9 in SSE 5 mph 7 mph 60.9% 0 in
00:09 51.1 °F 37.6 °F 30 in SSE 4.7 mph 5.9 mph 60% 0 in
00:14 51.3 °F 37.8 °F 30 in SSE 4.2 mph 6 mph 60% 0 in
00:19 51.3 °F 37.8 °F 30 in SSE 4 mph 3 mph 60% 0 in
00:24 51.4 °F 37.9 °F 30 in SSE 2.6 mph 3.5 mph 60% 0 in
00:29 51.4 °F 37.9 °F 30 in SSO 2 mph 4.7 mph 59.8% 0 in
00:34 52.2 °F 38.1 °F 30 in OSO 2.6 mph 5 mph 58.8% 0 in
00:39 52.3 °F 38.1 °F 30 in ONO 2.9 mph 5 mph 58% 0 in
00:44 52.3 °F 38.1 °F 29.9 in ONO 3 mph 5 mph 58% 0 in
00:49 52.5 °F 38.1 °F 29.9 in ONO 3.1 mph 5 mph 57.7% 0 in
00:54 52.5 °F 38.1 °F 30 in SSE 3 mph 4.6 mph 57.8% 0 in
00:59 52.2 °F 38.3 °F 30 in SSE 2.9 mph 5 mph 59% 0 in
01:04 52.2 °F 38.1 °F 30 in SSE 2.2 mph 3 mph 58.5% 0 in
01:09 52.2 °F 37.9 °F 30 in SO 2 mph 3.6 mph 58.2% 0 in
01:14 52.2 °F 38.3 °F 30 in Oeste 1.9 mph 4.6 mph 59% 0 in
01:19 52.2 °F 38.3 °F 30 in Oeste 1.8 mph 5 mph 59% 0 in
01:24 52.3 °F 38.3 °F 30 in Oeste 2.7 mph 5 mph 58.5% 0 in
01:29 52.9 °F 38.5 °F 29.9 in Oeste 3.1 mph 5 mph 57.9% 0 in
01:34 53.1 °F 38.3 °F 29.9 in Oeste 2.6 mph 5 mph 57% 0 in
01:39 53.2 °F 38.5 °F 29.9 in Oeste 2.4 mph 5 mph 57% 0 in
01:44 53.4 °F 38.7 °F 29.9 in Oeste 2.1 mph 3.6 mph 57% 0 in
01:49 53.4 °F 38.7 °F 29.9 in NO 2 mph 4 mph 57% 0 in
01:54 53.4 °F 38.7 °F 29.9 in NNO 1.9 mph 4 mph 57.4% 0 in
01:59 53.2 °F 38.8 °F 29.9 in NNO 1.8 mph 4 mph 58.1% 0 in
02:04 52.7 °F 38.8 °F 29.9 in NO 2.2 mph 5.2 mph 59.2% 0 in
02:09 52.3 °F 38.8 °F 29.9 in Oeste 2.4 mph 5.4 mph 60% 0 in
02:14 52.2 °F 38.7 °F 29.9 in OSO 2.7 mph 6 mph 59.6% 0 in
02:19 52.3 °F 38.7 °F 29.9 in SO 2.9 mph 5 mph 59.3% 0 in
02:24 52.2 °F 38.8 °F 29.9 in SO 2.5 mph 5 mph 60% 0 in
02:29 52.2 °F 38.7 °F 29.9 in SO 2.4 mph 5.2 mph 60% 0 in
02:34 52.2 °F 38.7 °F 29.9 in SO 3.2 mph 6.9 mph 60% 0 in
02:39 52.2 °F 38.7 °F 29.9 in OSO 3.6 mph 7 mph 60% 0 in
02:44 52 °F 38.8 °F 29.9 in OSO 4.3 mph 7.4 mph 60.8% 0 in
02:49 51.6 °F 38.7 °F 29.9 in SSO 4.7 mph 8.7 mph 61% 0 in
02:54 51.8 °F 38.7 °F 29.9 in SSO 4.7 mph 9 mph 60.9% 0 in
02:59 51.4 °F 38.7 °F 29.9 in NNO 4.7 mph 6 mph 61.4% 0 in
03:04 50.7 °F 38.7 °F 29.9 in NNO 3 mph 5 mph 63.2% 0 in
03:09 50.2 °F 38.8 °F 29.9 in NNE 2.4 mph 4.7 mph 65% 0 in
03:14 49.6 °F 38.7 °F 29.9 in Sur 2.4 mph 8.1 mph 66% 0 in
03:19 49.5 °F 39 °F 29.9 in SO 2.4 mph 8 mph 66.8% 0 in
03:24 49.5 °F 39 °F 29.9 in SSE 3.2 mph 5.8 mph 66.9% 0 in
03:29 49.5 °F 38.7 °F 29.9 in SSE 3.6 mph 8.5 mph 66% 0 in
03:34 49.5 °F 38.7 °F 29.9 in SSE 4.1 mph 9.2 mph 66% 0 in
03:39 49.5 °F 38.7 °F 29.9 in SE 4.3 mph 9.2 mph 66% 0 in
03:44 49.3 °F 38.5 °F 29.9 in ONO 4.6 mph 9 mph 66.3% 0 in
03:49 49.1 °F 38.5 °F 29.9 in Este 4.7 mph 7 mph 67% 0 in
03:54 49.3 °F 38.5 °F 29.9 in Sur 3.5 mph 5 mph 66.3% 0 in
03:59 49.1 °F 38.5 °F 29.9 in Sur 2.9 mph 5 mph 66.8% 0 in
04:04 48.7 °F 38.5 °F 29.9 in SO 2.9 mph 6.9 mph 67.2% 0 in
04:09 48.6 °F 38.5 °F 29.9 in SSO 2.9 mph 7.4 mph 68% 0 in
04:14 48.6 °F 38.5 °F 29.9 in SSO 4.1 mph 8.1 mph 68% 0 in
04:19 48.7 °F 38.7 °F 29.9 in SO 4.7 mph 9.2 mph 68% 0 in
04:24 48.9 °F 38.5 °F 29.9 in SO 5 mph 9 mph 67.3% 0 in
04:29 49.1 °F 38.7 °F 29.9 in OSO 5.2 mph 6 mph 67% 0 in
04:34 48.9 °F 38.3 °F 29.9 in OSO 4.1 mph 6 mph 67% 0 in
04:39 48.7 °F 38.5 °F 29.9 in Sur 3.6 mph 6 mph 67.3% 0 in
04:44 48.6 °F 38.5 °F 29.9 in ESE 2.5 mph 3.1 mph 68% 0 in
04:49 48.6 °F 38.5 °F 29.9 in OSO 2 mph 6.2 mph 68% 0 in
04:54 48.4 °F 38.3 °F 29.9 in OSO 2.3 mph 6.2 mph 68.2% 0 in
04:59 48.7 °F 39 °F 29.9 in SO 2.4 mph 9.2 mph 69% 0 in
05:04 50 °F 39.9 °F 29.9 in SSO 4.5 mph 12.3 mph 68.1% 0 in
05:09 51.6 °F 40.8 °F 29.9 in SO 5.4 mph 13 mph 66.6% 0 in
05:14 52.3 °F 41.2 °F 29.9 in SO 6.5 mph 12 mph 65.3% 0 in
05:19 52.9 °F 41.2 °F 29.9 in OSO 6.9 mph 9 mph 64.5% 0 in
05:24 53.1 °F 41.2 °F 29.9 in OSO 5.2 mph 7 mph 64% 0 in
05:29 52.9 °F 41.4 °F 29.9 in SO 4.3 mph 8.5 mph 64.7% 0 in
05:34 52.9 °F 41.5 °F 29.9 in SO 4.9 mph 9.2 mph 65% 0 in
05:39 53.1 °F 41.5 °F 29.9 in OSO 5.2 mph 9.7 mph 64.6% 0 in
05:44 53.1 °F 41.4 °F 29.9 in OSO 5.2 mph 10 mph 64.3% 0 in
05:49 52.9 °F 41.4 °F 29.9 in OSO 5.2 mph 8 mph 65% 0 in
05:54 52.7 °F 41.4 °F 29.9 in OSO 4.6 mph 7 mph 65% 0 in
05:59 52.5 °F 41.2 °F 29.9 in OSO 4.3 mph 6 mph 65% 0 in
06:04 52.3 °F 41 °F 29.9 in OSO 3.8 mph 6 mph 65% 0 in
06:09 52 °F 40.6 °F 29.9 in SO 3.6 mph 6 mph 65.2% 0 in
06:14 51.4 °F 40.5 °F 29.9 in OSO 3.6 mph 6 mph 66% 0 in
06:19 51.1 °F 40.5 °F 29.9 in OSO 3.6 mph 6.2 mph 66.6% 0 in
06:24 50.5 °F 40.3 °F 29.9 in OSO 3.6 mph 6 mph 67.7% 0 in
06:29 50.2 °F 40.1 °F 29.9 in SO 3.6 mph 5 mph 68.4% 0 in
06:34 49.6 °F 39.9 °F 29.9 in OSO 2.8 mph 5 mph 69% 0 in
06:39 49.5 °F 40.1 °F 29.9 in SO 2.4 mph 5 mph 69.8% 0 in
06:44 49.3 °F 39.9 °F 29.9 in SO 2.1 mph 5 mph 70% 0 in
06:49 49.3 °F 40.3 °F 29.9 in SO 2 mph 4 mph 71% 0 in
06:54 49.3 °F 40.3 °F 29.9 in SO 1.6 mph 2 mph 71% 0 in
06:59 49.3 °F 40.5 °F 29.9 in SSE 1.4 mph 4.7 mph 71.5% 0 in
07:04 49.5 °F 40.5 °F 29.9 in SSE 1.8 mph 5 mph 71% 0 in
07:09 49.5 °F 40.1 °F 29.9 in SSE 2 mph 5 mph 70.2% 0 in
07:14 49.5 °F 40.1 °F 29.9 in Sur 2 mph 4.3 mph 70% 0 in
07:19 49.5 °F 40.1 °F 29.9 in SSE 2 mph 5.8 mph 70% 0 in
07:24 49.1 °F 40.1 °F 29.9 in Este 2.3 mph 6 mph 70.7% 0 in
07:29 48.7 °F 39.9 °F 29.9 in SSE 2.4 mph 6.2 mph 71.8% 0 in
07:34 48.4 °F 39.9 °F 29.9 in Sur 3.2 mph 6 mph 72.5% 0 in
07:39 48.6 °F 40.1 °F 29.9 in Sur 3.6 mph 5 mph 73% 0 in
07:44 48.7 °F 40.3 °F 29.9 in Sur 3.2 mph 5.2 mph 72.6% 0 in
07:49 49.1 °F 40.5 °F 29.9 in Sur 3.1 mph 5.8 mph 72% 0 in
07:54 49.1 °F 40.1 °F 29.9 in SSO 3.1 mph 6 mph 71.1% 0 in
07:59 48.4 °F 39.7 °F 29.9 in NO 3.1 mph 5.8 mph 72% 0 in
08:04 47.8 °F 39.9 °F 29.9 in NO 3 mph 6 mph 73.4% 0 in
08:09 47.7 °F 39.9 °F 29.9 in Oeste 2.9 mph 5.2 mph 74.5% 0 in
08:14 48 °F 40.6 °F 29.9 in SSE 2.5 mph 6.4 mph 75.5% 0 in
08:19 48.9 °F 41 °F 29.9 in Sur 2.4 mph 8.5 mph 73.9% 0 in
08:24 49.6 °F 41 °F 29.9 in SSE 4.8 mph 10.7 mph 72.1% 0 in
08:29 49.8 °F 40.8 °F 29.9 in SSE 5.9 mph 11 mph 71% 0 in
08:34 49.6 °F 41 °F 29.9 in SE 6.3 mph 10 mph 71.9% 0 in
08:39 49.6 °F 40.8 °F 29.9 in Sur 6.4 mph 8.1 mph 72% 0 in
08:44 49.5 °F 41.2 °F 29.9 in OSO 5.2 mph 8 mph 72.8% 0 in
08:49 49.6 °F 41.4 °F 29.9 in ONO 4.7 mph 6.9 mph 73% 0 in
08:54 50 °F 41.2 °F 29.9 in ONO 4.2 mph 7 mph 72% 0 in
08:59 49.6 °F 41.4 °F 29.9 in OSO 4 mph 7 mph 72.7% 0 in
09:04 49.8 °F 41.5 °F 29.9 in OSO 4 mph 6.2 mph 73% 0 in
09:09 50.2 °F 41.7 °F 29.9 in SO 4 mph 6 mph 72.6% 0 in
09:14 50.7 °F 41.9 °F 29.9 in SSO 3.4 mph 5.4 mph 71.5% 0 in
09:19 51.4 °F 42.1 °F 29.9 in SSE 3.1 mph 8.7 mph 70.3% 0 in
09:24 52 °F 42.1 °F 29.9 in SSE 4.5 mph 9.2 mph 69% 0 in
09:29 52.2 °F 42.3 °F 29.9 in SSE 5.2 mph 8.5 mph 69% 0 in
09:34 51.8 °F 42.3 °F 29.9 in SSE 5.7 mph 9 mph 70% 0 in
09:39 51.4 °F 42.3 °F 29.9 in SSE 5.9 mph 8.1 mph 70.7% 0 in
09:44 51.4 °F 42.4 °F 29.9 in Sur 5.4 mph 8 mph 71.1% 0 in
09:49 51.6 °F 42.6 °F 29.9 in Sur 5.2 mph 7.4 mph 71.1% 0 in
09:54 52.2 °F 42.8 °F 29.9 in SSE 4.6 mph 7 mph 70.3% 0 in
09:59 52.7 °F 43 °F 29.9 in SSE 4.3 mph 7 mph 69.3% 0 in
10:04 53.1 °F 43.2 °F 29.9 in SO 3.8 mph 7 mph 69% 0 in
10:09 53.4 °F 43.2 °F 30 in SO 3.6 mph 5 mph 68.4% 0 in
10:14 54 °F 43.5 °F 30 in SO 2.1 mph 2.3 mph 67.9% 0 in
10:19 54.3 °F 43.7 °F 30 in Sur 1.4 mph 2.9 mph 67% 0 in
10:24 55 °F 43.7 °F 30 in ESE 1.4 mph 4 mph 65.7% 0 in
10:29 55.6 °F 44.1 °F 30 in ESE 1.4 mph 5 mph 65% 0 in
10:34 55.9 °F 44.4 °F 30 in SE 1.8 mph 4.7 mph 65% 0 in
10:39 56.3 °F 45 °F 30 in SSE 2 mph 7.6 mph 65.7% 0 in
10:44 56.5 °F 45.5 °F 30 in SE 3.4 mph 8.1 mph 66.7% 0 in
10:49 56.7 °F 45.5 °F 30 in SSE 4 mph 8.1 mph 66.1% 0 in
10:54 57 °F 45.5 °F 30 in SSE 4.5 mph 8.5 mph 65.2% 0 in
10:59 57.6 °F 45.5 °F 30 in SSE 4.7 mph 9 mph 63.8% 0 in
11:04 57.9 °F 45.3 °F 30 in Sur 5.2 mph 9 mph 63% 0 in
11:09 58.1 °F 45.7 °F 30 in SSO 5.4 mph 7 mph 63% 0 in
11:14 58.3 °F 45.5 °F 30 in Sur 4.7 mph 7 mph 62.4% 0 in
11:19 58.5 °F 45.5 °F 30 in Sur 4.3 mph 6 mph 62.1% 0 in
11:24 58.6 °F 45.7 °F 30 in Sur 3.9 mph 7.4 mph 62% 0 in
11:29 59 °F 46 °F 30 in Sur 3.6 mph 7 mph 62% 0 in
11:34 59.5 °F 46.2 °F 30 in Sur 3.9 mph 8.1 mph 61.4% 0 in
11:39 60.1 °F 46.2 °F 30 in Sur 4 mph 8.5 mph 60.3% 0 in
11:44 60.8 °F 46.6 °F 30 in SSO 4.5 mph 9 mph 59.5% 0 in
11:49 61.3 °F 46.8 °F 30 in SSO 4.7 mph 7 mph 58.5% 0 in
11:54 62.1 °F 46.9 °F 30 in SSO 4.4 mph 7 mph 57.5% 0 in
11:59 62.6 °F 46.8 °F 29.9 in Sur 4.3 mph 7 mph 56.1% 0 in
12:04 63.1 °F 46.9 °F 29.9 in SSO 4.6 mph 7 mph 55.4% 0 in
12:09 63.3 °F 46.8 °F 29.9 in SSO 4.7 mph 6.9 mph 54.6% 0 in
12:14 63.7 °F 46.8 °F 29.9 in Sur 4.2 mph 7 mph 54.3% 0 in
12:19 64 °F 46.9 °F 29.9 in Oeste 4 mph 5.2 mph 53.7% 0 in
12:24 64.4 °F 46.9 °F 29.9 in Oeste 2.9 mph 6.9 mph 53% 0 in
12:29 64.8 °F 47.1 °F 29.9 in OSO 2.4 mph 7.4 mph 53% 0 in
12:34 64.9 °F 47.3 °F 29.9 in Oeste 3.2 mph 9.2 mph 53% 0 in
12:39 64.9 °F 47.5 °F 29.9 in OSO 3.6 mph 9 mph 53.2% 0 in
12:44 65.1 °F 47.7 °F 29.9 in OSO 4.1 mph 6.9 mph 53.1% 0 in
12:49 65.3 °F 47.7 °F 29.9 in Oeste 4.3 mph 7 mph 53% 0 in
12:54 65.5 °F 47.8 °F 29.9 in Oeste 3.5 mph 5.2 mph 53% 0 in
12:59 65.7 °F 48 °F 29.9 in Oeste 3.1 mph 5 mph 53% 0 in
13:04 65.8 °F 47.8 °F 29.9 in ONO 2.3 mph 4.7 mph 52.1% 0 in
13:09 66.2 °F 48.6 °F 29.9 in SO 2 mph 5 mph 52.9% 0 in
13:14 66.7 °F 48.4 °F 29.9 in ONO 1.9 mph 5 mph 51.8% 0 in
13:19 66.9 °F 48.2 °F 29.9 in NO 1.8 mph 6.2 mph 51% 0 in
13:24 66.9 °F 48.2 °F 29.9 in Oeste 2.7 mph 6.9 mph 51% 0 in
13:29 66.9 °F 48.2 °F 29.9 in Oeste 3.1 mph 7 mph 51% 0 in
13:34 67.1 °F 48.7 °F 29.9 in ONO 3.1 mph 5.8 mph 51.7% 0 in
13:39 67.5 °F 48.7 °F 29.9 in OSO 3.1 mph 6 mph 51% 0 in
13:44 67.6 °F 48.9 °F 29.9 in OSO 3.1 mph 6 mph 51% 0 in
13:49 68.2 °F 48.9 °F 29.9 in OSO 3.1 mph 6 mph 50.4% 0 in
13:54 68.4 °F 49.1 °F 29.9 in OSO 3.1 mph 6.2 mph 50.4% 0 in
13:59 68.5 °F 49.1 °F 29.9 in SO 3.1 mph 8.1 mph 50% 0 in
14:04 68.7 °F 49.3 °F 29.9 in OSO 4.3 mph 10 mph 50% 0 in
14:09 68.9 °F 49.5 °F 29.9 in OSO 4.7 mph 10.4 mph 49.9% 0 in
14:14 69.3 °F 49.6 °F 29.9 in SO 5 mph 8.1 mph 49.9% 0 in
14:19 69.3 °F 49.8 °F 29.9 in SO 5.2 mph 8.1 mph 49.8% 0 in
14:24 69.4 °F 50.2 °F 29.9 in SO 4.8 mph 8.1 mph 50% 0 in
14:29 69.8 °F 50.2 °F 29.9 in SO 4.7 mph 8 mph 49.9% 0 in
14:34 70 °F 50.5 °F 29.9 in OSO 4.2 mph 7 mph 49.9% 0 in
14:39 70 °F 50.5 °F 29.9 in SO 4 mph 6 mph 50% 0 in
14:44 70.2 °F 50.5 °F 29.9 in SSO 3.4 mph 5 mph 49.8% 0 in
14:49 70.3 °F 50.7 °F 29.9 in Sur 3.1 mph 6.2 mph 49.7% 0 in
14:54 70.3 °F 50.7 °F 29.9 in SSE 3 mph 6 mph 50% 0 in
14:59 70.3 °F 50.5 °F 29.9 in SSE 2.9 mph 5 mph 49.6% 0 in
15:04 70.3 °F 50.7 °F 29.9 in Sur 2.9 mph 5 mph 50% 0 in
15:09 70.3 °F 50.7 °F 29.9 in SSE 2.9 mph 6.2 mph 50% 0 in
15:14 70.2 °F 50.7 °F 29.9 in SSE 3.4 mph 6.2 mph 50% 0 in
15:19 70.2 °F 50.5 °F 29.9 in SSE 3.6 mph 7.4 mph 50% 0 in
15:24 70.2 °F 50.5 °F 29.9 in SE 4 mph 7 mph 50% 0 in
15:29 70 °F 50.9 °F 29.9 in SE 4.3 mph 6.9 mph 50.7% 0 in
15:34 69.8 °F 50.9 °F 29.9 in SE 4.1 mph 7 mph 51% 0 in
15:39 69.8 °F 50.9 °F 29.9 in SSE 4 mph 5.9 mph 51% 0 in
15:44 69.8 °F 50.9 °F 29.9 in Sur 3.7 mph 6 mph 51% 0 in
15:49 69.8 °F 50.9 °F 29.9 in SSE 3.6 mph 5 mph 51% 0 in
15:54 70 °F 51.1 °F 29.9 in Sur 2.8 mph 5 mph 51% 0 in
15:59 70.2 °F 50.7 °F 29.9 in SO 2.4 mph 3.5 mph 50.4% 0 in
16:04 70.2 °F 50.5 °F 29.9 in OSO 1.7 mph 3 mph 50% 0 in
16:09 70.3 °F 51.1 °F 29.9 in OSO 1.4 mph 3.5 mph 50.5% 0 in
16:14 70.3 °F 51.3 °F 29.9 in OSO 1.4 mph 4.6 mph 51% 0 in
16:19 70.3 °F 51.3 °F 29.9 in OSO 1.4 mph 5 mph 50.8% 0 in
16:24 70.3 °F 51.3 °F 29.9 in OSO 1.8 mph 5 mph 51% 0 in
16:29 70.3 °F 51.6 °F 29.9 in OSO 2 mph 4 mph 51.6% 0 in
16:34 70.3 °F 52 °F 29.9 in ONO 1.9 mph 5 mph 52% 0 in
16:39 70.3 °F 52 °F 29.9 in ONO 1.8 mph 5 mph 52% 0 in
16:44 70.3 °F 51.8 °F 29.9 in ONO 1.6 mph 3.6 mph 52% 0 in
16:49 70.2 °F 51.6 °F 29.9 in SO 1.4 mph 5.2 mph 52% 0 in
16:54 70.2 °F 51.6 °F 29.9 in SSE 2.1 mph 5 mph 51.8% 0 in
16:59 70 °F 52.2 °F 29.9 in SE 2.4 mph 6.9 mph 53% 0 in
17:04 69.6 °F 52.2 °F 29.9 in SE 2.7 mph 7 mph 54% 0 in
17:09 69.4 °F 52.3 °F 29.9 in SSE 2.9 mph 7 mph 54.4% 0 in
17:14 69.6 °F 52.2 °F 29.9 in SO 2.5 mph 5 mph 54% 0 in
17:19 70 °F 52.3 °F 29.9 in Sur 2.4 mph 5.4 mph 53.5% 0 in
17:24 70 °F 52.2 °F 29.9 in Sur 2.4 mph 6 mph 53.2% 0 in
17:29 69.8 °F 52.3 °F 29.9 in SO 2.4 mph 5 mph 54% 0 in
17:34 69.4 °F 52.2 °F 29.9 in Oeste 2.1 mph 10.7 mph 54% 0 in
17:39 69.3 °F 52 °F 29.9 in OSO 2 mph 11 mph 54.2% 0 in
17:44 69.1 °F 51.8 °F 29.9 in OSO 3.1 mph 10 mph 54.3% 0 in
17:49 68.7 °F 51.4 °F 29.9 in OSO 3.6 mph 8.7 mph 54% 0 in
17:54 68.5 °F 51.3 °F 29.9 in SO 4.3 mph 9.2 mph 54% 0 in
17:59 68.4 °F 51.1 °F 29.9 in OSO 4.7 mph 8 mph 54% 0 in
18:04 68.4 °F 51.1 °F 29.9 in OSO 4.2 mph 8.1 mph 54% 0 in
18:09 68.4 °F 51.1 °F 29.9 in OSO 4 mph 8.5 mph 54% 0 in
18:14 68.4 °F 51.1 °F 29.9 in SO 4 mph 9 mph 54% 0 in
18:19 68.4 °F 51.1 °F 29.9 in SO 4 mph 7.6 mph 54% 0 in
18:24 68.2 °F 50.9 °F 29.9 in SO 4.2 mph 9.2 mph 54% 0 in
18:29 68.2 °F 51.1 °F 29.9 in SO 4.3 mph 9.2 mph 54.3% 0 in
18:34 67.8 °F 51.1 °F 29.9 in OSO 5.1 mph 10.4 mph 55% 0 in
18:39 67.8 °F 51.1 °F 29.9 in OSO 5.4 mph 10 mph 55% 0 in
18:44 67.6 °F 50.9 °F 29.9 in OSO 5.4 mph 10 mph 55% 0 in
18:49 67.8 °F 51.1 °F 29.9 in OSO 5.4 mph 10.4 mph 55% 0 in
18:54 68.2 °F 51.3 °F 29.9 in OSO 5.4 mph 11.8 mph 54.7% 0 in
18:59 68.2 °F 51.4 °F 29.9 in SO 5.4 mph 12 mph 54.9% 0 in
19:04 68 °F 51.3 °F 29.9 in Oeste 4.1 mph 8 mph 55% 0 in
19:09 67.6 °F 51.3 °F 29.9 in OSO 3.6 mph 6.9 mph 55.7% 0 in
19:14 67.5 °F 51.4 °F 29.9 in SO 3.2 mph 7 mph 56.5% 0 in
19:19 67.1 °F 51.6 °F 29.9 in SO 3.1 mph 7.4 mph 57.4% 0 in
19:24 66.7 °F 51.6 °F 29.9 in SSO 3.9 mph 8.5 mph 58.1% 0 in
19:29 66.6 °F 51.8 °F 29.9 in Sur 4.3 mph 9.2 mph 59.2% 0 in
19:34 65.8 °F 52.2 °F 29.9 in Sur 4.3 mph 9 mph 61.2% 0 in
19:39 65.3 °F 52.2 °F 29.9 in SSE 4.3 mph 8.1 mph 62.7% 0 in
19:44 64.8 °F 52.2 °F 29.9 in SSO 4.6 mph 8.5 mph 63.8% 0 in
19:49 64.6 °F 52.2 °F 29.9 in SSO 4.7 mph 9 mph 64% 0 in
19:54 64.8 °F 52.3 °F 29.9 in SSO 4.7 mph 8.5 mph 64% 0 in
19:59 64.9 °F 52.3 °F 29.9 in SSO 4.7 mph 9 mph 63.5% 0 in
20:04 64.9 °F 52.2 °F 29.9 in OSO 4.4 mph 7 mph 63.2% 0 in
20:09 64.8 °F 52.3 °F 29.9 in SO 4.3 mph 6.9 mph 64% 0 in
20:14 64.6 °F 52.2 °F 29.9 in SO 3.5 mph 7 mph 64% 0 in
20:19 64.6 °F 52.2 °F 29.9 in SO 3.1 mph 6 mph 64% 0 in
20:24 64.6 °F 52.2 °F 29.9 in Sur 3.4 mph 5.2 mph 64% 0 in
20:29 64.6 °F 52 °F 29.9 in SSE 3.6 mph 5 mph 64% 0 in
20:34 64.4 °F 52 °F 29.9 in SSE 3.2 mph 5 mph 64% 0 in
20:39 64.4 °F 52 °F 29.9 in SSE 3.1 mph 3.5 mph 64% 0 in
20:44 64.4 °F 52 °F 29.9 in SO 2.4 mph 4.6 mph 64% 0 in
20:49 64.2 °F 51.8 °F 29.9 in OSO 2 mph 5 mph 64% 0 in
20:54 63.9 °F 51.8 °F 30 in OSO 1.6 mph 2.9 mph 64.5% 0 in
20:59 63.7 °F 51.8 °F 30 in OSO 1.4 mph 4.3 mph 65.2% 0 in
21:04 63.1 °F 51.8 °F 30 in SSE 1.8 mph 5.9 mph 66.3% 0 in
21:09 62.8 °F 51.8 °F 30 in SSE 2 mph 6 mph 67.2% 0 in
21:14 62.4 °F 51.8 °F 30 in OSO 2.7 mph 5 mph 68% 0 in
21:19 62.2 °F 51.6 °F 30 in SSO 3.1 mph 5.9 mph 68.5% 0 in
21:24 61.9 °F 51.6 °F 30 in SSO 3 mph 6 mph 69% 0 in
21:29 61.9 °F 51.6 °F 30 in Sur 2.9 mph 6 mph 69% 0 in
21:34 61.9 °F 51.6 °F 30 in SSO 3.7 mph 5.2 mph 69% 0 in
21:39 61.9 °F 51.4 °F 30 in OSO 4 mph 5 mph 69% 0 in
21:44 61.3 °F 51.3 °F 30 in SO 3.4 mph 5.2 mph 69.5% 0 in
21:49 61 °F 51.1 °F 30 in OSO 3.1 mph 5 mph 70% 0 in
21:54 60.6 °F 51.1 °F 30 in SO 3.1 mph 5.9 mph 70.5% 0 in
21:59 60.8 °F 51.1 °F 30 in OSO 3.1 mph 6 mph 70% 0 in
22:04 61 °F 51.1 °F 30 in OSO 3.7 mph 6.9 mph 70% 0 in
22:09 61 °F 51.1 °F 30 in OSO 4 mph 7 mph 70% 0 in
22:14 60.8 °F 50.9 °F 30 in SO 3.7 mph 6 mph 70% 0 in
22:19 60.6 °F 50.9 °F 30 in SO 3.6 mph 6.9 mph 70% 0 in
22:24 61.2 °F 51.1 °F 30 in SSO 3.2 mph 7 mph 69.7% 0 in
22:29 61.2 °F 50.9 °F 30 in Sur 3.1 mph 6.2 mph 69% 0 in
22:34 61 °F 50.9 °F 30 in Sur 3.9 mph 6 mph 69.3% 0 in
22:39 60.6 °F 50.9 °F 30 in Sur 4.3 mph 6 mph 70.1% 0 in
22:44 60.4 °F 51.1 °F 30 in Sur 3.9 mph 6 mph 71% 0 in
22:49 60.3 °F 50.9 °F 30 in Sur 3.6 mph 5 mph 71% 0 in
22:54 60.3 °F 50.7 °F 30 in SE 3.1 mph 5.8 mph 71.1% 0 in
22:59 59.5 °F 50.7 °F 30 in SE 2.9 mph 6.9 mph 72.5% 0 in
23:04 58.6 °F 50.5 °F 30 in SE 3.7 mph 7 mph 74.7% 0 in
23:09 58.3 °F 50.7 °F 30 in SSE 4 mph 6.9 mph 75.9% 0 in
23:14 58.1 °F 50.5 °F 30 in SSE 4.2 mph 7 mph 76% 0 in
23:19 58.1 °F 50.9 °F 30 in SE 4.3 mph 7 mph 76.9% 0 in
23:24 58.3 °F 50.7 °F 30 in SSE 4.6 mph 7 mph 76.1% 0 in
23:29 58.5 °F 50.9 °F 30 in SSO 4.7 mph 7 mph 75.9% 0 in
23:34 58.8 °F 50.7 °F 30 in SSO 4.4 mph 7 mph 74.8% 0 in
23:39 59.2 °F 50.9 °F 30 in SO 4.3 mph 7 mph 74% 0 in
23:44 59.4 °F 50.9 °F 30 in SO 4.1 mph 7 mph 73.3% 0 in
23:49 59.4 °F 50.9 °F 30 in SSO 4 mph 5 mph 73.6% 0 in
23:54 59.4 °F 50.7 °F 30 in Sur 3.4 mph 5 mph 73.1% 0 in
23:59 59.4 °F 50.5 °F 30 in ESE 3.1 mph 5 mph 73% 0 in
Murcia-Puente Tocinos, España
Compliments of Weather Underground - 3 mb

La estación de MeteoMurcia.com, publica sus datos en los siguientes proyectos:

Weather Underground PWS IMURCIAP2 Meteoclimatic www.awekas.at

W3Counter
Web Analytics